Time;durP1;ratioP1;P1;durP2;ratioP2;P2;SDS_P1;SDS_P2;PMS_P1;PMS_P2;Temp;Humidity;BMP_temperature;BMP_pressure;BME280_temperature;BME280_humidity;BME280_pressure;Samples;Min_cycle;Max_cycle;Signal;HPM_P1;HPM_P2
2023/04/16 00:00:42;;;;;;;68.30;26.70;;;7.60;99.90;;;6.07;100.00;101302.44;4919125;28;20145;-83
2023/04/16 00:03:27;;;;;;;53.63;25.40;;;7.60;99.90;;;6.07;100.00;101310.28;4883665;28;20081;-86
2023/04/16 00:06:02;;;;;;;50.63;24.90;;;7.60;99.90;;;6.11;100.00;101305.84;4848453;28;20043;-84
2023/04/16 00:08:30;;;;;;;58.42;27.20;;;7.60;99.90;;;6.12;100.00;101307.56;4889249;28;20284;-84
2023/04/16 00:11:01;;;;;;;61.55;27.75;;;7.70;99.90;;;6.21;100.00;101296.06;4848026;28;20055;-84
2023/04/16 00:13:27;;;;;;;56.83;27.23;;;7.70;99.90;;;6.30;100.00;101294.13;4866001;29;20116;-84
2023/04/16 00:15:53;;;;;;;52.35;22.52;;;7.70;99.90;;;6.23;100.00;101300.38;4890337;28;20043;-85
2023/04/16 00:18:20;;;;;;;55.55;26.83;;;7.70;99.90;;;6.22;100.00;101297.78;4891185;28;20041;-83
2023/04/16 00:20:47;;;;;;;57.78;26.88;;;7.70;99.90;;;6.20;100.00;101300.44;4899150;28;20034;-84
2023/04/16 00:23:24;;;;;;;52.90;21.90;;;7.60;99.90;;;6.05;100.00;101293.75;4892252;28;20035;-84
2023/04/16 00:25:52;;;;;;;58.15;26.40;;;7.60;99.90;;;6.07;100.00;101296.31;4899116;28;20480;-83
2023/04/16 00:28:24;;;;;;;48.67;25.67;;;7.60;99.90;;;6.03;100.00;101295.53;4915517;28;20511;-84
2023/04/16 00:30:53;;;;;;;52.90;24.50;;;7.60;99.90;;;6.05;100.00;101298.13;4927516;28;20375;-83
2023/04/16 00:33:34;;;;;;;48.65;21.85;;;7.60;99.90;;;5.99;100.00;101290.41;4955036;28;20043;-84
2023/04/16 00:36:09;;;;;;;;;;;;;;;;;;;;;
2023/04/16 00:38:36;;;;;;;53.50;24.13;;;7.50;99.90;;;6.03;100.00;101297.28;4911757;28;20042;-83
2023/04/16 00:41:03;;;;;;;60.10;27.60;;;;;;;6.12;100.00;101312.81;4904986;28;20081;-84
2023/04/16 00:43:34;;;;;;;61.38;27.77;;;7.60;99.90;;;6.15;100.00;101304.88;4930439;28;20042;-84
2023/04/16 00:46:04;;;;;;;62.88;26.17;;;;;;;6.12;100.00;101303.19;4961272;28;20037;-84
2023/04/16 00:48:42;;;;;;;63.45;27.73;;;7.60;99.90;;;6.17;100.00;101308.34;4955162;28;20046;-84
2023/04/16 00:51:35;;;;;;;55.85;24.30;;;7.60;99.90;;;6.11;100.00;101306.72;4931584;28;20034;-84
2023/04/16 00:54:02;;;;;;;55.40;23.63;;;7.60;99.90;;;6.07;100.00;101312.91;4921224;28;20243;-84
2023/04/16 00:56:29;;;;;;;59.53;27.88;;;;;;;6.13;100.00;101304.94;4950065;28;20072;-84
2023/04/16 00:58:55;;;;;;;58.92;26.52;;;;;;;6.16;100.00;101312.72;4968698;28;20589;-85
2023/04/16 01:01:32;;;;;;;50.65;26.20;;;7.60;99.90;;;6.05;100.00;101311.22;4955459;28;20030;-84
2023/04/16 01:03:58;;;;;;;67.70;26.92;;;7.60;99.90;;;6.09;100.00;101308.50;4939782;28;20052;-84
2023/04/16 01:06:32;;;;;;;56.45;26.85;;;;;;;6.06;100.00;101308.53;4901542;28;20026;-84
2023/04/16 01:09:02;;;;;;;54.28;27.60;;;7.60;99.90;;;6.06;100.00;101307.69;4915072;28;20042;-85
2023/04/16 01:11:47;;;;;;;;;;;;;;;;;;;;;
2023/04/16 01:14:16;;;;;;;56.17;25.65;;;7.60;99.90;;;6.15;100.00;101313.63;4896565;28;20632;-84
2023/04/16 01:16:42;;;;;;;57.17;26.23;;;7.70;99.90;;;6.20;100.00;101318.75;4908694;28;20073;-85
2023/04/16 01:19:08;;;;;;;62.33;27.90;;;7.60;99.90;;;6.15;100.00;101315.34;4974456;28;20033;-83
2023/04/16 01:21:33;;;;;;;48.28;21.27;;;7.60;99.90;;;6.05;100.00;101322.53;4923988;28;20599;-84
2023/04/16 01:24:15;;;;;;;65.53;27.92;;;;;;;6.02;100.00;101327.78;4918392;28;20123;-83
2023/04/16 01:27:03;;;;;;;50.90;25.17;;;7.60;99.90;;;6.04;100.00;101322.53;4942310;28;20037;-84
2023/04/16 01:29:32;;;;;;;59.72;27.73;;;7.60;99.90;;;6.05;100.00;101332.97;4937070;28;20044;-84
2023/04/16 01:32:11;;;;;;;54.55;26.17;;;;;;;6.06;100.00;101329.47;4930943;28;20092;-84
2023/04/16 01:34:39;;;;;;;64.15;28.45;;;7.60;99.90;;;6.07;100.00;101336.44;4995501;28;20044;-84
2023/04/16 01:37:16;;;;;;;62.63;29.58;;;7.60;99.90;;;6.14;100.00;101338.03;4919210;28;20048;-83
2023/04/16 01:39:41;;;;;;;50.42;23.27;;;7.60;99.90;;;6.07;100.00;101338.16;4928550;28;20046;-84
2023/04/16 01:42:14;;;;;;;56.08;26.77;;;7.60;99.90;;;6.04;100.00;101340.84;4941517;28;20112;-84
2023/04/16 01:44:43;;;;;;;61.60;27.90;;;;;;;6.09;100.00;101342.50;4925157;28;20040;-85
2023/04/16 01:47:26;;;;;;;58.47;26.63;;;7.50;99.90;;;6.03;100.00;101341.75;4932663;28;20122;-83
2023/04/16 01:50:01;;;;;;;65.40;29.25;;;7.60;99.90;;;6.03;100.00;101341.75;4929257;28;20069;-84
2023/04/16 01:52:32;;;;;;;60.75;28.92;;;7.60;99.90;;;6.08;100.00;101347.75;4946988;28;20030;-83
2023/04/16 01:55:08;;;;;;;50.30;25.35;;;7.60;99.90;;;6.04;100.00;101351.28;4913842;28;20041;-85
2023/04/16 01:57:34;;;;;;;62.35;28.75;;;;;;;6.03;100.00;101349.59;4895138;28;20050;-85
2023/04/16 02:00:12;;;;;;;63.28;29.35;;;;;;;6.04;100.00;101340.84;4876051;28;20023;-83
2023/04/16 02:02:49;;;;;;;;;;;;;;;;;;;;;
2023/04/16 02:05:15;;;;;;;68.93;30.02;;;7.60;99.90;;;6.06;100.00;101339.06;4940752;28;20437;-84
2023/04/16 02:07:42;;;;;;;60.92;28.52;;;7.50;99.90;;;6.03;100.00;101329.53;4912919;28;20062;-84
2023/04/16 02:10:15;;;;;;;69.05;31.73;;;7.60;99.90;;;6.04;100.00;101331.22;4898896;28;20478;-84
2023/04/16 02:12:44;;;;;;;64.28;30.67;;;7.60;99.90;;;6.07;100.00;101330.31;4944029;28;20037;-84
2023/04/16 02:15:24;;;;;;;71.85;30.58;;;;;;;6.07;100.00;101328.59;4966810;28;20736;-84
2023/04/16 02:17:55;;;;;;;63.78;29.52;;;7.60;99.90;;;6.08;100.00;101334.66;4937385;28;20557;-85
2023/04/16 02:20:24;;;;;;;58.65;26.05;;;7.60;99.90;;;6.08;100.00;101324.22;4906989;28;20045;-84
2023/04/16 02:23:23;;;;;;;71.80;28.73;;;7.60;99.90;;;6.11;100.00;101329.38;4898208;28;20031;-84
2023/04/16 02:25:48;;;;;;;67.57;30.30;;;7.60;99.90;;;6.04;100.00;101335.59;4933244;28;20040;-84
2023/04/16 02:28:16;;;;;;;59.15;26.42;;;7.60;99.90;;;6.02;100.00;101335.63;4925431;28;20125;-84
2023/04/16 02:30:51;;;;;;;64.32;27.35;;;;;;;6.04;100.00;101333.00;4863592;28;20560;-84
2023/04/16 02:33:27;;;;;;;;;;;;;;;;;;;;;
2023/04/16 02:35:55;;;;;;;73.70;29.55;;;;;;;6.03;100.00;101349.59;4888281;28;20045;-83
2023/04/16 02:38:22;;;;;;;57.03;28.55;;;7.50;99.90;;;6.01;100.00;101349.59;4901033;28;20116;-84
2023/04/16 02:41:11;;;;;;;75.20;32.15;;;7.60;99.90;;;6.08;100.00;101348.59;4977659;28;20038;-84
2023/04/16 02:43:37;;;;;;;61.88;29.10;;;7.60;99.90;;;6.04;100.00;101346.06;4893387;28;20042;-85
2023/04/16 02:46:03;;;;;;;52.13;24.35;;;7.60;99.90;;;6.06;100.00;101347.75;4916581;28;20038;-84
2023/04/16 02:48:38;;;;;;;60.38;28.23;;;7.60;99.90;;;6.06;100.00;101357.34;4911836;28;20467;-84
2023/04/16 02:51:04;;;;;;;63.13;24.73;;;7.60;99.90;;;6.03;100.00;101360.91;4876652;28;20579;-83
2023/04/16 02:53:33;;;;;;;41.00;20.40;;;7.60;99.90;;;6.01;100.00;101361.81;4924986;28;20038;-84
2023/04/16 02:56:10;;;;;;;58.70;28.25;;;7.60;99.90;;;6.06;100.00;101354.75;4891517;28;20035;-84
2023/04/16 02:58:36;;;;;;;58.47;26.50;;;7.50;99.90;;;6.01;100.00;101367.03;4897661;28;20037;-84
2023/04/16 03:01:01;;;;;;;66.63;29.00;;;7.60;99.90;;;6.06;100.00;101362.59;4914530;28;20045;-83
2023/04/16 03:03:40;;;;;;;59.53;29.02;;;7.60;99.90;;;6.13;100.00;101365.06;4901587;28;20140;-85
2023/04/16 03:06:14;;;;;;;53.92;26.13;;;7.60;99.90;;;6.14;100.00;101363.31;4918309;28;20449;-84
2023/04/16 03:08:42;;;;;;;59.10;28.50;;;;;;;6.18;100.00;101359.75;4917484;28;20148;-85
2023/04/16 03:11:08;;;;;;;60.05;30.75;;;;;;;6.18;100.00;101357.16;4910313;28;20043;-84
2023/04/16 03:13:35;;;;;;;68.65;29.88;;;7.70;99.90;;;6.20;100.00;101351.88;4907817;28;20039;-83
2023/04/16 03:16:23;;;;;;;48.10;23.40;;;7.60;99.90;;;6.16;100.00;101356.31;4904174;28;20047;-84
2023/04/16 03:18:52;;;;;;;65.97;27.60;;;7.70;99.90;;;6.16;100.00;101358.94;4904110;28;20924;-83
2023/04/16 03:21:29;;;;;;;;;;;;;;;;;;;;;
2023/04/16 03:23:56;;;;;;;48.28;22.45;;;7.60;99.90;;;6.07;100.00;101369.53;4865738;28;21374;-83
2023/04/16 03:26:21;;;;;;;56.92;26.67;;;7.60;99.90;;;6.04;100.00;101370.44;4936660;28;20041;-85
2023/04/16 03:29:07;;;;;;;;;;;;;;;;;;;;;
2023/04/16 03:31:36;;;;;;;67.25;30.25;;;7.60;99.90;;;6.10;100.00;101361.66;4949005;28;20404;-86
2023/04/16 03:34:02;;;;;;;66.25;30.85;;;7.60;99.90;;;6.07;100.00;101365.19;4920630;28;20054;-84
2023/04/16 03:36:31;;;;;;;64.68;30.65;;;;;;;6.14;100.00;101365.94;4895192;28;20042;-85
2023/04/16 03:39:03;;;;;;;72.75;32.65;;;;;;;6.19;100.00;101371.94;4918821;28;20072;-84
2023/04/16 03:41:45;;;;;;;70.38;32.78;;;7.60;99.90;;;6.19;100.00;101371.94;4914992;28;20508;-85
2023/04/16 03:44:14;;;;;;;70.95;34.15;;;7.70;99.90;;;6.19;100.00;101377.16;4936125;28;20609;-84
2023/04/16 03:47:02;;;;;;;66.57;33.83;;;7.60;99.90;;;6.11;100.00;101382.53;4915409;28;20043;-85
2023/04/16 03:49:31;;;;;;;64.65;32.17;;;7.60;99.90;;;6.01;100.00;101388.81;4935450;28;20055;-83
2023/04/16 03:52:11;;;;;;;64.65;33.08;;;7.50;99.90;;;5.99;100.00;101380.13;4912468;28;20435;-84
2023/04/16 03:54:49;;;;;;;;;;;;;;;;;;;;;
2023/04/16 03:57:26;;;;;;;;;;;;;;;;;;;;;
2023/04/16 03:59:54;;;;;;;69.30;30.90;;;7.50;99.90;;;5.99;100.00;101389.75;4960134;28;21480;-85
2023/04/16 04:02:22;;;;;;;66.85;34.40;;;7.60;99.90;;;6.07;100.00;101395.66;4915849;28;20047;-85
2023/04/16 04:04:48;;;;;;;76.28;36.58;;;7.60;99.90;;;6.09;100.00;101396.50;4919847;28;20369;-84
2023/04/16 04:07:22;;;;;;;64.85;33.67;;;;;;;6.04;100.00;101404.44;4925520;28;20045;-85
2023/04/16 04:09:51;;;;;;;66.50;33.47;;;7.60;99.90;;;6.02;100.00;101400.13;4933577;28;20052;-85
2023/04/16 04:12:26;;;;;;;82.07;38.33;;;7.60;99.90;;;6.17;100.00;101410.31;4903278;28;20634;-83
2023/04/16 04:14:51;;;;;;;76.78;37.03;;;7.60;99.90;;;6.25;100.00;101421.50;4913911;28;20120;-82
2023/04/16 04:17:19;;;;;;;72.20;36.17;;;7.60;99.90;;;6.22;100.00;101413.75;4905160;28;20507;-83
2023/04/16 04:19:52;;;;;;;78.43;36.38;;;7.70;99.90;;;6.25;100.00;101418.91;4878763;28;20044;-84
2023/04/16 04:22:21;;;;;;;75.60;33.88;;;7.60;99.90;;;6.19;100.00;101428.59;4949793;28;20036;-84
2023/04/16 04:24:56;;;;;;;72.88;32.95;;;7.60;99.90;;;6.16;100.00;101421.69;4925751;28;20056;-84
2023/04/16 04:27:22;;;;;;;60.20;28.58;;;7.70;99.90;;;6.21;100.00;101430.31;4891983;28;20027;-85
2023/04/16 04:29:50;;;;;;;76.47;35.45;;;7.70;99.90;;;6.21;100.00;101425.06;4908738;28;20038;-84
2023/04/16 04:32:25;;;;;;;63.55;33.40;;;7.70;99.90;;;6.26;100.00;101425.00;4921751;28;20057;-85
2023/04/16 04:34:53;;;;;;;59.47;31.70;;;7.70;99.90;;;6.21;100.00;101427.69;4933598;28;20056;-84
2023/04/16 04:37:33;;;;;;;75.22;34.42;;;7.70;99.90;;;6.30;100.00;101422.28;4916260;28;20527;-84
2023/04/16 04:40:08;;;;;;;66.68;32.75;;;;;;;6.21;100.00;101427.69;4909518;28;20057;-85
2023/04/16 04:42:34;;;;;;;66.70;34.05;;;7.70;99.90;;;6.30;100.00;101434.50;4988810;28;20037;-84
2023/04/16 04:45:26;;;;;;;63.13;30.27;;;7.70;99.90;;;6.27;100.00;101431.97;4909964;28;20027;-84
2023/04/16 04:47:54;;;;;;;67.88;32.78;;;7.80;99.90;;;6.34;100.00;101428.34;4927950;28;20034;-85
2023/04/16 04:50:23;;;;;;;68.35;33.88;;;7.80;99.90;;;6.34;100.00;101428.34;4880428;28;20189;-84
2023/04/16 04:53:08;;;;;;;;;;;;;;;;;;;;;
2023/04/16 04:55:36;;;;;;;66.43;31.30;;;7.80;99.90;;;6.42;100.00;101436.91;4924875;28;20038;-84
2023/04/16 04:58:04;;;;;;;60.45;30.48;;;7.80;99.90;;;6.40;100.00;101433.47;4885496;28;20054;-83
2023/04/16 05:00:31;;;;;;;71.10;32.28;;;7.80;99.90;;;6.43;100.00;101433.41;4944370;28;20052;-84
2023/04/16 05:03:12;;;;;;;60.53;31.15;;;7.90;99.90;;;6.55;100.00;101445.41;4915778;28;20095;-84
2023/04/16 05:05:49;;;;;;;66.50;30.15;;;7.90;99.90;;;6.59;100.00;101439.22;4905244;28;20038;-83
2023/04/16 05:08:15;;;;;;;62.28;29.58;;;8.00;99.90;;;6.64;100.00;101445.22;4905025;28;20046;-83
2023/04/16 05:10:53;;;;;;;54.45;28.50;;;8.00;99.90;;;6.66;100.00;101450.44;4906176;28;20050;-84
2023/04/16 05:13:29;;;;;;;;;;;;;;;;;;;;;
2023/04/16 05:15:55;;;;;;;54.20;28.90;;;8.10;99.90;;;6.70;100.00;101446.88;4934586;28;20498;-85
2023/04/16 05:18:24;;;;;;;55.83;28.38;;;8.10;99.90;;;6.71;100.00;101446.81;4925018;28;20121;-84
2023/04/16 05:21:08;;;;;;;;;;;;;;;;;;;;;
2023/04/16 05:23:56;;;;;;;62.58;29.20;;;8.20;99.90;;;6.97;100.00;101456.78;4904830;28;20030;-84
2023/04/16 05:26:22;;;;;;;48.92;23.83;;;8.30;99.90;;;6.87;100.00;101465.75;4909299;28;20414;-87
2023/04/16 05:29:04;;;;;;;52.35;27.05;;;8.30;99.90;;;6.87;100.00;101470.09;4925934;28;20033;-85
2023/04/16 05:31:41;;;;;;;52.85;26.30;;;8.30;99.90;;;6.90;100.00;101475.28;4919552;28;20060;-83
2023/04/16 05:34:15;;;;;;;56.83;28.02;;;8.20;99.90;;;6.91;100.00;101474.38;4929421;28;20052;-84
2023/04/16 05:36:45;;;;;;;55.42;27.17;;;8.30;99.90;;;6.82;100.00;101477.19;4896745;28;20050;-86
2023/04/16 05:39:12;;;;;;;53.97;26.48;;;;;;;6.86;100.00;101477.09;4904438;28;20314;-85
2023/04/16 05:41:51;;;;;;;54.00;27.52;;;;;;;6.94;100.00;101479.56;4916421;28;20039;-85
2023/04/16 05:44:46;;;;;;;51.58;25.65;;;8.30;99.90;;;6.76;100.00;101489.50;4972094;28;20448;-85
2023/04/16 05:47:20;;;;;;;48.65;25.50;;;8.20;99.90;;;6.76;100.00;101484.25;4929919;28;20248;-84
2023/04/16 05:49:47;;;;;;;52.78;26.30;;;8.20;99.90;;;6.82;100.00;101482.41;4939873;28;20054;-84
2023/04/16 05:52:13;;;;;;;56.50;26.88;;;;;;;6.81;100.00;101483.31;4885474;28;20366;-85
2023/04/16 05:54:50;;;;;;;46.75;23.75;;;8.30;99.90;;;6.90;100.00;101488.38;4903349;28;20049;-84
2023/04/16 05:57:16;;;;;;;60.20;29.38;;;8.30;99.90;;;6.96;100.00;101491.72;4872343;28;20089;-82
2023/04/16 05:59:42;;;;;;;60.20;28.55;;;8.40;99.90;;;7.16;100.00;101499.19;4861462;28;20042;-84
2023/04/16 06:02:14;;;;;;;59.80;28.80;;;8.50;99.90;;;7.31;100.00;101492.78;4900837;28;20126;-84
2023/04/16 06:04:42;;;;;;;56.55;28.98;;;8.60;99.90;;;7.38;100.00;101494.38;4905469;28;20112;-85
2023/04/16 06:07:08;;;;;;;57.88;29.02;;;8.70;99.90;;;7.52;100.00;101501.09;4905150;28;21474;-84
2023/04/16 06:09:35;;;;;;;55.63;27.30;;;8.70;99.90;;;7.50;100.00;101495.88;4943750;28;20104;-83
2023/04/16 06:12:06;;;;;;;56.40;28.67;;;8.80;99.90;;;7.42;100.00;101500.41;4887851;28;20455;-85
2023/04/16 06:14:33;;;;;;;55.75;28.15;;;8.90;99.90;;;7.63;100.00;101499.09;4934583;28;20026;-83
2023/04/16 06:16:59;;;;;;;48.25;26.10;;;9.00;99.90;;;7.75;100.00;101504.06;4899143;28;20029;-84
2023/04/16 06:19:25;;;;;;;66.13;27.90;;;9.00;99.90;;;7.66;100.00;101504.25;4943998;28;20558;-83
2023/04/16 06:21:52;;;;;;;53.03;25.70;;;9.00;99.90;;;7.75;100.00;101509.31;4934131;28;20029;-84
2023/04/16 06:24:24;;;;;;;46.35;25.42;;;9.10;99.90;;;7.81;100.00;101505.69;4950103;28;20048;-84
2023/04/16 06:26:53;;;;;;;47.35;24.48;;;;;;;7.84;100.00;101513.50;4897832;28;20041;-84
2023/04/16 06:29:19;;;;;;;47.10;24.77;;;9.10;99.90;;;7.79;100.00;101512.72;4916334;28;20052;-84
2023/04/16 06:31:54;;;;;;;47.85;23.48;;;9.00;99.90;;;7.63;100.00;101520.06;4914780;28;20107;-84
2023/04/16 06:34:23;;;;;;;45.58;23.30;;;9.10;99.90;;;7.70;100.00;101515.56;4900909;28;20042;-83
2023/04/16 06:37:07;;;;;;;;;;;;;;;;;;;;;
2023/04/16 06:39:36;;;;;;;48.42;24.42;;;9.20;99.90;;;7.98;100.00;101521.03;5012278;28;20055;-84
2023/04/16 06:42:02;;;;;;;44.05;23.92;;;9.20;99.90;;;8.02;100.00;101533.19;4940942;28;20050;-83
2023/04/16 06:44:30;;;;;;;45.38;22.50;;;;;;;8.08;100.00;101529.53;4942170;28;20109;-84
2023/04/16 06:47:05;;;;;;;41.10;22.30;;;;;;;7.88;100.00;101530.00;4904215;28;20391;-83
2023/04/16 06:49:31;;;;;;;41.75;22.08;;;9.20;99.90;;;7.80;100.00;101528.41;4967583;28;20037;-85
2023/04/16 06:51:57;;;;;;;36.20;21.17;;;9.30;99.90;;;7.88;100.00;101522.13;4927262;28;20041;-83
2023/04/16 06:54:23;;;;;;;40.83;22.90;;;9.30;99.90;;;8.14;100.00;101529.41;4941563;28;20050;-85
2023/04/16 06:57:11;;;;;;;45.25;22.50;;;9.40;99.90;;;8.18;100.00;101544.16;4944997;28;20120;-83
2023/04/16 06:59:42;;;;;;;42.90;21.65;;;9.50;99.90;;;8.20;100.00;101537.13;4948188;28;20698;-83
2023/04/16 07:02:16;;;;;;;42.97;21.77;;;;;;;8.31;100.00;101548.22;4924465;28;20030;-83
2023/04/16 07:04:41;;;;;;;43.92;21.70;;;9.50;99.90;;;8.21;100.00;101538.88;4963159;28;20037;-83
2023/04/16 07:07:08;;;;;;;42.47;22.17;;;9.60;99.90;;;8.40;100.00;101545.44;4927473;28;20062;-83
2023/04/16 07:09:34;;;;;;;46.75;21.35;;;9.60;99.90;;;8.29;100.00;101552.63;4982462;28;20692;-83
2023/04/16 07:12:00;;;;;;;48.80;21.75;;;9.60;99.90;;;8.30;100.00;101550.91;4956639;28;20113;-83
2023/04/16 07:14:35;;;;;;;43.00;20.48;;;;;;;8.28;100.00;101553.56;4909181;28;20045;-84
2023/04/16 07:17:01;;;;;;;40.15;21.55;;;9.60;99.90;;;8.31;100.00;101550.84;4958637;28;20035;-84
2023/04/16 07:19:35;;;;;;;39.15;19.88;;;9.60;99.90;;;8.26;100.00;101539.59;4885852;28;20041;-83
2023/04/16 07:22:01;;;;;;;36.83;19.65;;;9.70;99.90;;;8.50;100.00;101551.28;4914972;28;20046;-82
2023/04/16 07:24:37;;;;;;;;;;;;;;;;;;;;;
2023/04/16 07:27:03;;;;;;;;;;;9.80;99.90;;;8.60;100.00;101552.81;4906174;23;20696;-83
2023/04/16 07:29:31;;;;;;;32.57;17.97;;;9.90;99.90;;;8.73;99.59;101550.72;4944778;28;19916;-83
2023/04/16 07:32:07;;;;;;;33.50;18.85;;;9.90;99.90;;;8.70;99.28;101565.69;4899620;28;20050;-83
2023/04/16 07:34:33;;;;;;;28.02;16.75;;;10.00;99.90;;;8.94;99.71;101559.81;4929136;28;20030;-81
2023/04/16 07:36:59;;;;;;;32.00;18.40;;;10.20;99.90;;;9.27;98.64;101566.81;4914640;28;20078;-83
2023/04/16 07:39:26;;;;;;;32.45;17.05;;;10.30;99.90;;;9.31;96.97;101561.44;4927058;28;20120;-83
2023/04/16 07:41:52;;;;;;;30.55;16.60;;;10.50;99.90;;;9.46;95.61;101570.66;4953461;28;20031;-83
2023/04/16 07:44:25;;;;;;;29.20;17.08;;;10.60;99.90;;;9.50;94.00;101572.28;4936946;28;20041;-83
2023/04/16 07:46:51;;;;;;;32.53;14.27;;;10.60;99.90;;;9.26;92.77;101560.69;4977058;28;20561;-83
2023/04/16 07:49:19;;;;;;;28.98;15.45;;;10.50;99.90;;;9.34;92.95;101581.50;4952962;28;20109;-82
2023/04/16 07:51:54;;;;;;;30.15;15.85;;;10.60;99.90;;;9.47;92.38;101575.00;4906669;28;20846;-83
2023/04/16 07:54:19;;;;;;;24.65;14.10;;;10.70;99.90;;;9.68;91.34;101576.16;4935630;28;20030;-84
2023/04/16 07:56:45;;;;;;;29.67;15.65;;;10.80;99.90;;;10.06;90.96;101588.16;4891575;28;20037;-83
2023/04/16 07:59:11;;;;;;;32.53;16.42;;;11.30;99.90;;;10.76;90.44;101581.56;4926865;28;20047;-83
2023/04/16 08:01:44;;;;;;;27.63;14.23;;;11.70;99.90;;;11.09;88.28;101586.59;4901815;28;20042;-82
2023/04/16 08:04:13;;;;;;;20.63;10.93;;;11.80;99.90;;;10.92;86.27;101583.69;4931092;28;20038;-83
2023/04/16 08:06:55;;;;;;;25.08;12.88;;;12.00;99.90;;;10.88;85.89;101586.44;4915308;28;20490;-82
2023/04/16 08:09:26;;;;;;;26.85;13.88;;;12.00;99.90;;;10.99;86.07;101588.69;4933188;28;20067;-82
2023/04/16 08:11:52;;;;;;;26.92;14.20;;;11.90;99.90;;;10.75;85.29;101592.16;4919142;28;20038;-83
2023/04/16 08:14:17;;;;;;;26.88;13.43;;;12.00;99.90;;;10.91;84.78;101589.84;4903022;28;20116;-84
2023/04/16 08:16:43;;;;;;;30.48;14.60;;;12.00;99.90;;;10.90;85.18;101596.88;4940580;28;20489;-82
2023/04/16 08:19:11;;;;;;;30.00;14.07;;;11.80;99.90;;;10.58;84.40;101598.84;4940279;28;20095;-82
2023/04/16 08:21:43;;;;;;;24.70;14.15;;;11.90;99.90;;;10.81;85.24;101605.13;4940304;28;20097;-81
2023/04/16 08:24:09;;;;;;;27.17;14.18;;;11.90;99.90;;;10.95;85.39;101607.28;4939823;28;20081;-83
2023/04/16 08:26:35;;;;;;;23.55;13.05;;;11.90;99.90;;;10.84;84.05;101619.06;4896616;28;20054;-82
2023/04/16 08:29:01;;;;;;;26.00;14.10;;;12.00;99.90;;;11.18;84.02;101617.88;4908481;28;20037;-82
2023/04/16 08:31:27;;;;;;;25.83;13.88;;;12.20;99.90;;;11.37;82.93;101619.88;4930487;28;20045;-83
2023/04/16 08:34:01;;;;;;;25.50;13.98;;;12.50;99.90;;;11.93;82.01;101622.25;4964422;28;20021;-83
2023/04/16 08:36:27;;;;;;;27.85;13.57;;;12.80;99.90;;;12.33;80.28;101628.59;4948273;28;20050;-83
2023/04/16 08:38:53;;;;;;;21.73;11.98;;;12.90;99.90;;;11.83;79.38;101626.09;4949772;28;20096;-82
2023/04/16 08:41:29;;;;;;;19.95;12.80;;;12.90;99.90;;;11.75;79.38;101628.16;4944821;28;20129;-85
2023/04/16 08:43:58;;;;;;;22.92;13.02;;;12.80;99.90;;;11.71;79.75;101630.06;4955832;28;20029;-84
2023/04/16 08:46:29;;;;;;;16.98;10.13;;;12.80;99.90;;;11.65;79.79;101631.16;4955799;28;20181;-82
2023/04/16 08:49:04;;;;;;;22.60;11.77;;;12.70;99.90;;;11.41;79.67;101630.25;4923057;28;20030;-84
2023/04/16 08:51:37;;;;;;;24.00;12.45;;;12.50;99.90;;;11.27;80.78;101629.88;4930485;28;20039;-84
2023/04/16 08:54:10;;;;;;;18.65;9.20;;;12.40;99.90;;;10.99;79.92;101636.13;4925232;28;20053;-83
2023/04/16 08:56:40;;;;;;;20.08;11.23;;;12.10;99.90;;;10.82;80.47;101644.59;4927490;28;20532;-82
2023/04/16 08:59:08;;;;;;;21.55;10.82;;;12.10;99.90;;;10.91;81.09;101645.16;4893332;28;20049;-83
2023/04/16 09:01:35;;;;;;;18.15;11.18;;;12.10;99.90;;;11.02;80.51;101653.59;4882875;28;20577;-83
2023/04/16 09:04:12;;;;;;;17.90;10.20;;;12.00;99.90;;;10.77;79.98;101648.28;4977567;28;20117;-83
2023/04/16 09:09:16;;;;;;;16.30;9.50;;;12.30;99.90;;;11.30;80.30;101653.53;5031616;23;20037;-82
2023/04/16 09:11:43;;;;;;;15.80;8.52;;;12.30;99.90;;;11.33;78.96;101668.38;5023755;28;20040;-82
2023/04/16 09:14:29;;;;;;;;;;;;;;;;;;;;;
2023/04/16 09:16:56;;;;;;;17.35;10.10;;;12.30;99.90;;;11.09;79.85;101669.16;4986774;28;20043;-83
2023/04/16 09:19:27;;;;;;;14.57;8.48;;;12.20;99.90;;;11.05;79.38;101674.56;4946890;28;20043;-83
2023/04/16 09:22:00;;;;;;;16.58;9.77;;;12.30;99.90;;;11.34;79.08;101667.44;4991903;28;20040;-83
2023/04/16 09:24:40;;;;;;;;;;;;;;;;;;;;;
2023/04/16 09:27:09;;;;;;;18.85;9.43;;;12.30;99.90;;;11.16;78.00;101676.84;4970502;28;20046;-84
2023/04/16 09:29:44;;;;;;;14.45;8.77;;;12.40;99.90;;;11.32;78.37;101682.44;5003154;28;20033;-82
2023/04/16 09:32:13;;;;;;;14.85;9.43;;;12.20;99.90;;;11.12;78.67;101689.25;5014470;28;20036;-83
2023/04/16 09:35:21;;;;;;;14.80;9.35;;;12.40;99.90;;;11.44;77.76;101672.34;5029100;28;20044;-83
2023/04/16 09:38:04;;;;;;;17.08;8.93;;;12.50;99.90;;;11.64;76.70;101684.84;4985206;28;20046;-82
2023/04/16 09:40:39;;;;;;;16.88;9.20;;;;;;;11.77;76.11;101689.66;4978337;28;20033;-83
2023/04/16 09:43:20;;;;;;;14.20;7.72;;;12.90;99.90;;;11.65;75.21;101689.19;5034086;28;20119;-84
2023/04/16 09:46:14;;;;;;;15.75;8.13;;;12.80;99.90;;;11.63;75.17;101698.06;4975983;28;20756;-84
2023/04/16 09:48:47;;;;;;;13.45;7.18;;;;;;;11.57;74.69;101693.88;4944923;28;20828;-85
2023/04/16 09:51:19;;;;;;;16.08;7.88;;;12.60;99.90;;;11.34;76.14;101705.25;4981922;28;20068;-83
2023/04/16 09:53:45;;;;;;;12.88;8.55;;;12.70;99.90;;;11.50;76.84;101698.50;5028499;28;20116;-82
2023/04/16 09:56:24;;;;;;;13.93;7.30;;;12.60;99.90;;;11.31;75.74;101705.31;4974295;28;20053;-84
2023/04/16 09:58:56;;;;;;;17.73;9.23;;;12.50;99.90;;;11.41;76.54;101706.75;5019497;28;20120;-83
2023/04/16 10:01:32;;;;;;;16.65;8.23;;;12.60;99.90;;;11.28;77.08;101703.66;5022812;28;20432;-83
2023/04/16 10:04:12;;;;;;;12.77;7.35;;;12.50;99.90;;;11.34;76.13;101707.00;4965248;28;20034;-82
2023/04/16 10:09:13;;;;;;;17.63;8.48;;;12.50;99.90;;;11.38;77.53;101703.34;4989258;23;20038;-83
2023/04/16 10:11:39;;;;;;;16.33;9.95;;;12.60;99.90;;;11.49;77.00;101704.72;4918353;28;20097;-83
2023/04/16 10:14:05;;;;;;;22.33;9.35;;;12.70;99.90;;;11.63;76.38;101704.22;4978467;28;20082;-85
2023/04/16 10:16:46;;;;;;;20.48;10.25;;;12.70;99.90;;;11.58;76.93;101711.44;4942279;28;20057;-84
2023/04/16 10:19:18;;;;;;;14.45;8.02;;;12.50;99.90;;;11.21;77.92;101714.44;4917228;28;20035;-86
2023/04/16 10:21:45;;;;;;;17.58;8.55;;;12.60;99.90;;;11.49;78.55;101720.53;4954502;28;20048;-82
2023/04/16 10:24:12;;;;;;;11.55;7.45;;;;;;;11.74;77.51;101734.63;4908187;28;20038;-83
2023/04/16 10:26:46;;;;;;;11.90;6.10;;;12.60;99.90;;;11.41;76.59;101717.28;4953556;28;20060;-84
2023/04/16 10:29:12;;;;;;;9.77;5.85;;;12.70;99.90;;;11.62;76.98;101718.31;4942197;28;20042;-83
2023/04/16 10:31:42;;;;;;;10.65;5.63;;;12.80;99.90;;;11.97;76.11;101713.59;4898466;28;20054;-84
2023/04/16 10:34:11;;;;;;;8.27;4.90;;;13.00;99.90;;;12.13;74.81;101715.66;4903985;28;20047;-83
2023/04/16 10:36:38;;;;;;;9.30;4.65;;;13.20;99.90;;;12.22;73.86;101717.94;4883085;28;20036;-82
2023/04/16 10:39:11;;;;;;;8.38;4.95;;;13.40;99.90;;;12.80;72.86;101720.13;4924268;28;20038;-82
2023/04/16 10:41:43;;;;;;;6.38;4.20;;;13.70;99.90;;;12.99;72.40;101721.09;4942808;28;20030;-83
2023/04/16 10:44:09;;;;;;;5.70;4.00;;;13.50;99.90;;;12.37;69.97;101722.63;4917486;28;20061;-83
2023/04/16 10:46:50;;;;;;;5.28;3.53;;;14.00;99.90;;;12.45;70.66;101717.94;4894124;28;20047;-82
2023/04/16 10:49:18;;;;;;;8.75;3.45;;;13.40;99.90;;;12.07;70.54;101708.81;4921600;28;20034;-82
2023/04/16 10:51:59;;;;;;;7.05;3.28;;;13.40;99.90;;;12.23;69.84;101717.03;4948206;28;20484;-83
2023/04/16 10:54:34;;;;;;;6.55;3.22;;;13.40;99.90;;;11.86;70.18;101706.03;4924533;28;20093;-83
2023/04/16 10:57:13;;;;;;;6.55;4.47;;;13.40;99.90;;;12.31;70.31;101720.25;4944055;28;20035;-84
2023/04/16 10:59:42;;;;;;;8.60;5.28;;;13.50;99.90;;;12.41;70.54;101724.25;4906632;28;20046;-83